sensor_id;sensor_type;location;lat;lon;timestamp;P1;durP1;ratioP1;P2;durP2;ratioP2
21245;SDS011;10781;50.928;4.440;2024-02-04T00:01:24;15.73;;;9.63;;
21245;SDS011;10781;50.928;4.440;2024-02-04T00:03:50;16.80;;;9.25;;
21245;SDS011;10781;50.928;4.440;2024-02-04T00:06:16;15.35;;;9.05;;
21245;SDS011;10781;50.928;4.440;2024-02-04T00:08:42;16.88;;;8.93;;
21245;SDS011;10781;50.928;4.440;2024-02-04T00:11:07;14.80;;;8.30;;
21245;SDS011;10781;50.928;4.440;2024-02-04T00:13:36;15.23;;;8.82;;
21245;SDS011;10781;50.928;4.440;2024-02-04T00:16:03;15.35;;;8.45;;
21245;SDS011;10781;50.928;4.440;2024-02-04T00:18:28;13.05;;;8.98;;
21245;SDS011;10781;50.928;4.440;2024-02-04T00:20:54;19.80;;;8.65;;
21245;SDS011;10781;50.928;4.440;2024-02-04T00:23:20;16.95;;;8.18;;
21245;SDS011;10781;50.928;4.440;2024-02-04T00:25:45;18.70;;;8.10;;
21245;SDS011;10781;50.928;4.440;2024-02-04T00:28:11;13.55;;;7.70;;
21245;SDS011;10781;50.928;4.440;2024-02-04T00:30:40;13.40;;;7.65;;
21245;SDS011;10781;50.928;4.440;2024-02-04T00:33:05;15.05;;;7.38;;
21245;SDS011;10781;50.928;4.440;2024-02-04T00:35:31;12.55;;;7.43;;
21245;SDS011;10781;50.928;4.440;2024-02-04T00:37:57;13.80;;;7.68;;
21245;SDS011;10781;50.928;4.440;2024-02-04T00:40:22;12.65;;;7.07;;
21245;SDS011;10781;50.928;4.440;2024-02-04T00:42:48;14.07;;;7.05;;
21245;SDS011;10781;50.928;4.440;2024-02-04T00:45:14;11.68;;;6.95;;
21245;SDS011;10781;50.928;4.440;2024-02-04T00:47:41;14.23;;;6.70;;
21245;SDS011;10781;50.928;4.440;2024-02-04T00:50:07;13.50;;;7.20;;
21245;SDS011;10781;50.928;4.440;2024-02-04T00:52:33;12.50;;;7.07;;
21245;SDS011;10781;50.928;4.440;2024-02-04T00:54:58;12.00;;;6.88;;
21245;SDS011;10781;50.928;4.440;2024-02-04T00:57:24;11.75;;;6.60;;
21245;SDS011;10781;50.928;4.440;2024-02-04T00:59:49;15.60;;;6.97;;
21245;SDS011;10781;50.928;4.440;2024-02-04T01:02:15;11.60;;;6.35;;
21245;SDS011;10781;50.928;4.440;2024-02-04T01:04:41;14.07;;;7.07;;
21245;SDS011;10781;50.928;4.440;2024-02-04T01:07:07;15.40;;;6.78;;
21245;SDS011;10781;50.928;4.440;2024-02-04T01:09:32;12.88;;;6.35;;
21245;SDS011;10781;50.928;4.440;2024-02-04T01:11:58;14.40;;;7.30;;
21245;SDS011;10781;50.928;4.440;2024-02-04T01:14:24;13.18;;;6.93;;
21245;SDS011;10781;50.928;4.440;2024-02-04T01:16:49;12.40;;;6.85;;
21245;SDS011;10781;50.928;4.440;2024-02-04T01:19:15;13.57;;;6.72;;
21245;SDS011;10781;50.928;4.440;2024-02-04T01:21:41;15.63;;;6.90;;
21245;SDS011;10781;50.928;4.440;2024-02-04T01:24:06;16.08;;;6.82;;
21245;SDS011;10781;50.928;4.440;2024-02-04T01:26:35;14.07;;;6.90;;
21245;SDS011;10781;50.928;4.440;2024-02-04T01:29:01;12.88;;;7.28;;
21245;SDS011;10781;50.928;4.440;2024-02-04T01:31:26;11.38;;;6.95;;
21245;SDS011;10781;50.928;4.440;2024-02-04T01:33:52;12.68;;;7.20;;
21245;SDS011;10781;50.928;4.440;2024-02-04T01:36:18;14.68;;;6.80;;
21245;SDS011;10781;50.928;4.440;2024-02-04T01:38:43;15.30;;;7.38;;
21245;SDS011;10781;50.928;4.440;2024-02-04T01:41:09;13.75;;;7.15;;
21245;SDS011;10781;50.928;4.440;2024-02-04T01:43:35;12.07;;;7.38;;
21245;SDS011;10781;50.928;4.440;2024-02-04T01:46:00;15.13;;;7.30;;
21245;SDS011;10781;50.928;4.440;2024-02-04T01:48:26;13.57;;;7.43;;
21245;SDS011;10781;50.928;4.440;2024-02-04T01:50:53;13.73;;;7.32;;
21245;SDS011;10781;50.928;4.440;2024-02-04T01:53:22;13.52;;;6.95;;
21245;SDS011;10781;50.928;4.440;2024-02-04T01:55:49;12.20;;;7.18;;
21245;SDS011;10781;50.928;4.440;2024-02-04T01:58:15;13.60;;;6.97;;
21245;SDS011;10781;50.928;4.440;2024-02-04T02:00:41;12.82;;;7.68;;
21245;SDS011;10781;50.928;4.440;2024-02-04T02:03:07;14.73;;;7.60;;
21245;SDS011;10781;50.928;4.440;2024-02-04T02:05:36;13.68;;;7.57;;
21245;SDS011;10781;50.928;4.440;2024-02-04T02:08:01;14.50;;;7.00;;
21245;SDS011;10781;50.928;4.440;2024-02-04T02:10:27;13.57;;;7.80;;
21245;SDS011;10781;50.928;4.440;2024-02-04T02:12:55;14.20;;;8.30;;
21245;SDS011;10781;50.928;4.440;2024-02-04T02:15:27;15.05;;;8.48;;
21245;SDS011;10781;50.928;4.440;2024-02-04T02:20:41;17.55;;;8.50;;
21245;SDS011;10781;50.928;4.440;2024-02-04T02:23:51;19.80;;;8.88;;
21245;SDS011;10781;50.928;4.440;2024-02-04T02:26:25;16.02;;;8.23;;
21245;SDS011;10781;50.928;4.440;2024-02-04T02:28:51;14.63;;;7.85;;
21245;SDS011;10781;50.928;4.440;2024-02-04T02:31:16;17.92;;;8.93;;
21245;SDS011;10781;50.928;4.440;2024-02-04T02:33:42;14.27;;;8.52;;
21245;SDS011;10781;50.928;4.440;2024-02-04T02:36:09;17.63;;;9.60;;
21245;SDS011;10781;50.928;4.440;2024-02-04T02:39:04;17.80;;;8.60;;
21245;SDS011;10781;50.928;4.440;2024-02-04T02:41:36;15.80;;;8.60;;
21245;SDS011;10781;50.928;4.440;2024-02-04T02:44:03;16.23;;;9.27;;
21245;SDS011;10781;50.928;4.440;2024-02-04T02:46:32;16.05;;;9.05;;
21245;SDS011;10781;50.928;4.440;2024-02-04T02:48:58;19.15;;;9.50;;
21245;SDS011;10781;50.928;4.440;2024-02-04T02:51:24;16.25;;;9.25;;
21245;SDS011;10781;50.928;4.440;2024-02-04T02:53:49;19.75;;;8.80;;
21245;SDS011;10781;50.928;4.440;2024-02-04T02:56:15;17.85;;;9.18;;
21245;SDS011;10781;50.928;4.440;2024-02-04T02:58:40;21.90;;;9.75;;
21245;SDS011;10781;50.928;4.440;2024-02-04T03:01:06;15.95;;;9.07;;
21245;SDS011;10781;50.928;4.440;2024-02-04T03:03:32;18.48;;;9.77;;
21245;SDS011;10781;50.928;4.440;2024-02-04T03:05:58;18.00;;;9.25;;
21245;SDS011;10781;50.928;4.440;2024-02-04T03:08:23;18.90;;;9.43;;
21245;SDS011;10781;50.928;4.440;2024-02-04T03:10:49;20.40;;;9.65;;
21245;SDS011;10781;50.928;4.440;2024-02-04T03:13:15;17.40;;;9.57;;
21245;SDS011;10781;50.928;4.440;2024-02-04T03:15:41;18.27;;;10.02;;
21245;SDS011;10781;50.928;4.440;2024-02-04T03:18:07;19.77;;;9.77;;
21245;SDS011;10781;50.928;4.440;2024-02-04T03:20:33;17.80;;;9.70;;
21245;SDS011;10781;50.928;4.440;2024-02-04T03:22:59;21.23;;;10.30;;
21245;SDS011;10781;50.928;4.440;2024-02-04T03:25:24;19.42;;;10.85;;
21245;SDS011;10781;50.928;4.440;2024-02-04T03:27:51;25.88;;;11.25;;
21245;SDS011;10781;50.928;4.440;2024-02-04T03:30:18;21.75;;;10.23;;
21245;SDS011;10781;50.928;4.440;2024-02-04T03:32:43;20.98;;;10.68;;
21245;SDS011;10781;50.928;4.440;2024-02-04T03:35:09;22.42;;;10.95;;
21245;SDS011;10781;50.928;4.440;2024-02-04T03:37:34;19.25;;;9.70;;
21245;SDS011;10781;50.928;4.440;2024-02-04T03:40:00;18.67;;;9.57;;
21245;SDS011;10781;50.928;4.440;2024-02-04T03:42:26;16.85;;;9.30;;
21245;SDS011;10781;50.928;4.440;2024-02-04T03:44:51;21.10;;;9.65;;
21245;SDS011;10781;50.928;4.440;2024-02-04T03:47:17;18.25;;;9.35;;
21245;SDS011;10781;50.928;4.440;2024-02-04T03:49:42;16.13;;;8.70;;
21245;SDS011;10781;50.928;4.440;2024-02-04T03:52:08;20.90;;;8.57;;
21245;SDS011;10781;50.928;4.440;2024-02-04T03:54:34;18.50;;;8.52;;
21245;SDS011;10781;50.928;4.440;2024-02-04T03:56:59;15.38;;;8.68;;
21245;SDS011;10781;50.928;4.440;2024-02-04T03:59:25;19.00;;;8.65;;
21245;SDS011;10781;50.928;4.440;2024-02-04T04:01:51;18.98;;;9.05;;
21245;SDS011;10781;50.928;4.440;2024-02-04T04:04:18;17.80;;;9.90;;
21245;SDS011;10781;50.928;4.440;2024-02-04T04:06:44;19.75;;;9.38;;
21245;SDS011;10781;50.928;4.440;2024-02-04T04:09:10;20.00;;;9.52;;
21245;SDS011;10781;50.928;4.440;2024-02-04T04:11:38;15.88;;;8.70;;
21245;SDS011;10781;50.928;4.440;2024-02-04T04:14:04;15.95;;;8.93;;
21245;SDS011;10781;50.928;4.440;2024-02-04T04:16:30;15.73;;;8.85;;
21245;SDS011;10781;50.928;4.440;2024-02-04T04:18:55;19.20;;;8.07;;
21245;SDS011;10781;50.928;4.440;2024-02-04T04:21:23;16.45;;;8.35;;
21245;SDS011;10781;50.928;4.440;2024-02-04T04:23:49;18.13;;;8.40;;
21245;SDS011;10781;50.928;4.440;2024-02-04T04:26:14;18.58;;;8.38;;
21245;SDS011;10781;50.928;4.440;2024-02-04T04:28:43;13.90;;;7.53;;
21245;SDS011;10781;50.928;4.440;2024-02-04T04:31:08;16.55;;;7.75;;
21245;SDS011;10781;50.928;4.440;2024-02-04T04:33:35;18.40;;;7.75;;
21245;SDS011;10781;50.928;4.440;2024-02-04T04:36:01;15.07;;;7.65;;
21245;SDS011;10781;50.928;4.440;2024-02-04T04:38:27;17.30;;;8.15;;
21245;SDS011;10781;50.928;4.440;2024-02-04T04:40:55;17.00;;;7.43;;
21245;SDS011;10781;50.928;4.440;2024-02-04T04:43:21;15.23;;;7.95;;
21245;SDS011;10781;50.928;4.440;2024-02-04T04:45:46;16.40;;;7.28;;
21245;SDS011;10781;50.928;4.440;2024-02-04T04:48:12;15.10;;;7.78;;
21245;SDS011;10781;50.928;4.440;2024-02-04T04:50:38;17.20;;;7.30;;
21245;SDS011;10781;50.928;4.440;2024-02-04T04:53:03;15.98;;;7.78;;
21245;SDS011;10781;50.928;4.440;2024-02-04T04:55:29;17.00;;;7.50;;
21245;SDS011;10781;50.928;4.440;2024-02-04T04:57:55;16.40;;;7.22;;
21245;SDS011;10781;50.928;4.440;2024-02-04T05:00:20;15.68;;;7.13;;
21245;SDS011;10781;50.928;4.440;2024-02-04T05:02:46;15.98;;;7.13;;
21245;SDS011;10781;50.928;4.440;2024-02-04T05:05:13;13.32;;;6.93;;
21245;SDS011;10781;50.928;4.440;2024-02-04T05:07:39;11.07;;;5.82;;
21245;SDS011;10781;50.928;4.440;2024-02-04T05:10:05;16.55;;;6.20;;
21245;SDS011;10781;50.928;4.440;2024-02-04T05:12:32;13.63;;;6.22;;
21245;SDS011;10781;50.928;4.440;2024-02-04T05:14:58;10.52;;;5.90;;
21245;SDS011;10781;50.928;4.440;2024-02-04T05:17:24;11.40;;;5.38;;
21245;SDS011;10781;50.928;4.440;2024-02-04T05:19:51;11.95;;;5.95;;
21245;SDS011;10781;50.928;4.440;2024-02-04T05:22:17;10.25;;;5.07;;
21245;SDS011;10781;50.928;4.440;2024-02-04T05:24:42;9.45;;;5.07;;
21245;SDS011;10781;50.928;4.440;2024-02-04T05:27:08;9.48;;;5.22;;
21245;SDS011;10781;50.928;4.440;2024-02-04T05:29:34;9.48;;;5.35;;
21245;SDS011;10781;50.928;4.440;2024-02-04T05:31:59;8.77;;;5.38;;
21245;SDS011;10781;50.928;4.440;2024-02-04T05:34:25;14.98;;;6.10;;
21245;SDS011;10781;50.928;4.440;2024-02-04T05:36:50;14.10;;;6.50;;
21245;SDS011;10781;50.928;4.440;2024-02-04T05:39:16;13.85;;;6.28;;
21245;SDS011;10781;50.928;4.440;2024-02-04T05:41:42;12.52;;;5.85;;
21245;SDS011;10781;50.928;4.440;2024-02-04T05:44:08;15.50;;;6.82;;
21245;SDS011;10781;50.928;4.440;2024-02-04T05:46:37;12.63;;;6.28;;
21245;SDS011;10781;50.928;4.440;2024-02-04T05:49:03;13.65;;;6.78;;
21245;SDS011;10781;50.928;4.440;2024-02-04T05:51:31;13.88;;;6.60;;
21245;SDS011;10781;50.928;4.440;2024-02-04T05:53:58;17.73;;;7.45;;
21245;SDS011;10781;50.928;4.440;2024-02-04T05:56:24;19.90;;;7.57;;
21245;SDS011;10781;50.928;4.440;2024-02-04T05:58:49;17.77;;;7.80;;
21245;SDS011;10781;50.928;4.440;2024-02-04T06:01:16;19.13;;;8.05;;
21245;SDS011;10781;50.928;4.440;2024-02-04T06:03:42;15.50;;;8.43;;
21245;SDS011;10781;50.928;4.440;2024-02-04T06:06:14;20.55;;;9.55;;
21245;SDS011;10781;50.928;4.440;2024-02-04T06:08:41;22.65;;;9.30;;
21245;SDS011;10781;50.928;4.440;2024-02-04T06:11:09;23.15;;;9.18;;
21245;SDS011;10781;50.928;4.440;2024-02-04T06:13:38;21.45;;;8.82;;
21245;SDS011;10781;50.928;4.440;2024-02-04T06:16:05;26.40;;;9.20;;
21245;SDS011;10781;50.928;4.440;2024-02-04T06:18:31;22.08;;;9.40;;
21245;SDS011;10781;50.928;4.440;2024-02-04T06:20:56;21.20;;;9.82;;
21245;SDS011;10781;50.928;4.440;2024-02-04T06:23:22;27.20;;;9.60;;
21245;SDS011;10781;50.928;4.440;2024-02-04T06:25:48;23.17;;;9.95;;
21245;SDS011;10781;50.928;4.440;2024-02-04T06:28:13;23.00;;;9.82;;
21245;SDS011;10781;50.928;4.440;2024-02-04T06:30:39;20.67;;;8.45;;
21245;SDS011;10781;50.928;4.440;2024-02-04T06:33:04;23.58;;;8.60;;
21245;SDS011;10781;50.928;4.440;2024-02-04T06:35:31;22.10;;;9.07;;
21245;SDS011;10781;50.928;4.440;2024-02-04T06:37:57;20.98;;;9.18;;
21245;SDS011;10781;50.928;4.440;2024-02-04T06:40:22;18.65;;;8.18;;
21245;SDS011;10781;50.928;4.440;2024-02-04T06:42:48;19.42;;;8.57;;
21245;SDS011;10781;50.928;4.440;2024-02-04T06:45:16;19.77;;;8.20;;
21245;SDS011;10781;50.928;4.440;2024-02-04T06:47:45;18.83;;;7.70;;
21245;SDS011;10781;50.928;4.440;2024-02-04T06:50:11;17.15;;;7.75;;
21245;SDS011;10781;50.928;4.440;2024-02-04T06:52:41;15.35;;;7.25;;
21245;SDS011;10781;50.928;4.440;2024-02-04T06:55:11;16.15;;;7.60;;
21245;SDS011;10781;50.928;4.440;2024-02-04T06:57:36;20.95;;;7.60;;
21245;SDS011;10781;50.928;4.440;2024-02-04T07:00:03;14.63;;;7.18;;
21245;SDS011;10781;50.928;4.440;2024-02-04T07:02:33;18.52;;;7.38;;
21245;SDS011;10781;50.928;4.440;2024-02-04T07:04:59;16.45;;;7.03;;
21245;SDS011;10781;50.928;4.440;2024-02-04T07:07:25;13.52;;;6.90;;
21245;SDS011;10781;50.928;4.440;2024-02-04T07:09:50;14.55;;;7.85;;
21245;SDS011;10781;50.928;4.440;2024-02-04T07:12:16;18.83;;;7.50;;
21245;SDS011;10781;50.928;4.440;2024-02-04T07:14:41;16.33;;;7.25;;
21245;SDS011;10781;50.928;4.440;2024-02-04T07:17:08;18.92;;;7.95;;
21245;SDS011;10781;50.928;4.440;2024-02-04T07:19:36;18.35;;;7.88;;
21245;SDS011;10781;50.928;4.440;2024-02-04T07:22:02;23.05;;;9.27;;
21245;SDS011;10781;50.928;4.440;2024-02-04T07:24:28;19.88;;;9.50;;
21245;SDS011;10781;50.928;4.440;2024-02-04T07:26:54;21.17;;;9.35;;
21245;SDS011;10781;50.928;4.440;2024-02-04T07:29:20;21.45;;;9.82;;
21245;SDS011;10781;50.928;4.440;2024-02-04T07:31:46;21.98;;;9.40;;
21245;SDS011;10781;50.928;4.440;2024-02-04T07:34:11;21.98;;;9.38;;
21245;SDS011;10781;50.928;4.440;2024-02-04T07:36:37;20.60;;;9.90;;
21245;SDS011;10781;50.928;4.440;2024-02-04T07:39:03;21.08;;;9.45;;
21245;SDS011;10781;50.928;4.440;2024-02-04T07:41:29;23.23;;;9.32;;
21245;SDS011;10781;50.928;4.440;2024-02-04T07:43:56;20.67;;;10.15;;
21245;SDS011;10781;50.928;4.440;2024-02-04T07:46:22;23.45;;;10.13;;
21245;SDS011;10781;50.928;4.440;2024-02-04T07:48:48;22.63;;;10.50;;
21245;SDS011;10781;50.928;4.440;2024-02-04T07:51:13;20.98;;;10.15;;
21245;SDS011;10781;50.928;4.440;2024-02-04T07:53:39;26.02;;;11.65;;
21245;SDS011;10781;50.928;4.440;2024-02-04T07:56:05;20.42;;;9.68;;
21245;SDS011;10781;50.928;4.440;2024-02-04T07:58:32;25.75;;;10.15;;
21245;SDS011;10781;50.928;4.440;2024-02-04T08:00:58;19.48;;;10.50;;
21245;SDS011;10781;50.928;4.440;2024-02-04T08:03:23;22.48;;;10.55;;
21245;SDS011;10781;50.928;4.440;2024-02-04T08:05:49;18.60;;;9.32;;
21245;SDS011;10781;50.928;4.440;2024-02-04T08:08:15;20.13;;;9.60;;
21245;SDS011;10781;50.928;4.440;2024-02-04T08:10:40;22.88;;;9.25;;
21245;SDS011;10781;50.928;4.440;2024-02-04T08:13:07;17.70;;;8.30;;
21245;SDS011;10781;50.928;4.440;2024-02-04T08:15:33;13.50;;;8.15;;
21245;SDS011;10781;50.928;4.440;2024-02-04T08:17:58;14.40;;;7.35;;
21245;SDS011;10781;50.928;4.440;2024-02-04T08:20:24;16.58;;;7.38;;
21245;SDS011;10781;50.928;4.440;2024-02-04T08:22:51;10.43;;;5.68;;
21245;SDS011;10781;50.928;4.440;2024-02-04T08:25:16;17.75;;;6.35;;
21245;SDS011;10781;50.928;4.440;2024-02-04T08:27:42;14.77;;;5.90;;
21245;SDS011;10781;50.928;4.440;2024-02-04T08:30:08;13.68;;;5.90;;
21245;SDS011;10781;50.928;4.440;2024-02-04T08:32:36;9.25;;;5.25;;
21245;SDS011;10781;50.928;4.440;2024-02-04T08:35:02;10.30;;;5.00;;
21245;SDS011;10781;50.928;4.440;2024-02-04T08:37:28;8.35;;;4.75;;
21245;SDS011;10781;50.928;4.440;2024-02-04T08:39:54;11.23;;;5.25;;
21245;SDS011;10781;50.928;4.440;2024-02-04T08:42:19;10.70;;;5.18;;
21245;SDS011;10781;50.928;4.440;2024-02-04T08:44:45;11.75;;;6.25;;
21245;SDS011;10781;50.928;4.440;2024-02-04T08:47:12;11.30;;;5.50;;
21245;SDS011;10781;50.928;4.440;2024-02-04T08:49:39;12.07;;;5.47;;
21245;SDS011;10781;50.928;4.440;2024-02-04T08:52:07;10.73;;;5.80;;
21245;SDS011;10781;50.928;4.440;2024-02-04T08:54:32;10.40;;;5.65;;
21245;SDS011;10781;50.928;4.440;2024-02-04T08:56:58;10.00;;;6.03;;
21245;SDS011;10781;50.928;4.440;2024-02-04T08:59:24;9.88;;;6.50;;
21245;SDS011;10781;50.928;4.440;2024-02-04T09:01:49;11.02;;;5.90;;
21245;SDS011;10781;50.928;4.440;2024-02-04T09:04:15;11.45;;;5.78;;
21245;SDS011;10781;50.928;4.440;2024-02-04T09:06:41;9.98;;;5.63;;
21245;SDS011;10781;50.928;4.440;2024-02-04T09:09:07;11.18;;;5.38;;
21245;SDS011;10781;50.928;4.440;2024-02-04T09:11:34;9.95;;;5.15;;
21245;SDS011;10781;50.928;4.440;2024-02-04T09:13:59;8.20;;;4.65;;
21245;SDS011;10781;50.928;4.440;2024-02-04T09:16:25;8.77;;;5.22;;
21245;SDS011;10781;50.928;4.440;2024-02-04T09:18:51;13.13;;;5.20;;
21245;SDS011;10781;50.928;4.440;2024-02-04T09:21:16;9.05;;;4.55;;
21245;SDS011;10781;50.928;4.440;2024-02-04T09:23:42;8.55;;;4.70;;
21245;SDS011;10781;50.928;4.440;2024-02-04T09:26:08;8.60;;;4.03;;
21245;SDS011;10781;50.928;4.440;2024-02-04T09:28:34;7.65;;;4.22;;
21245;SDS011;10781;50.928;4.440;2024-02-04T09:31:00;7.57;;;4.43;;
21245;SDS011;10781;50.928;4.440;2024-02-04T09:33:27;6.28;;;3.90;;
21245;SDS011;10781;50.928;4.440;2024-02-04T09:35:56;7.53;;;4.03;;
21245;SDS011;10781;50.928;4.440;2024-02-04T09:38:22;8.02;;;3.92;;
21245;SDS011;10781;50.928;4.440;2024-02-04T09:40:47;8.35;;;4.13;;
21245;SDS011;10781;50.928;4.440;2024-02-04T09:43:13;9.02;;;3.65;;
21245;SDS011;10781;50.928;4.440;2024-02-04T09:45:39;9.07;;;3.70;;
21245;SDS011;10781;50.928;4.440;2024-02-04T09:48:06;9.93;;;3.72;;
21245;SDS011;10781;50.928;4.440;2024-02-04T09:50:33;8.00;;;3.15;;
21245;SDS011;10781;50.928;4.440;2024-02-04T09:52:59;9.73;;;3.55;;
21245;SDS011;10781;50.928;4.440;2024-02-04T09:55:25;8.20;;;3.30;;
21245;SDS011;10781;50.928;4.440;2024-02-04T09:57:53;6.47;;;3.50;;
21245;SDS011;10781;50.928;4.440;2024-02-04T10:00:19;9.65;;;3.28;;
21245;SDS011;10781;50.928;4.440;2024-02-04T10:02:45;7.93;;;2.90;;
21245;SDS011;10781;50.928;4.440;2024-02-04T10:05:13;7.93;;;3.70;;
21245;SDS011;10781;50.928;4.440;2024-02-04T10:07:42;8.70;;;3.58;;
21245;SDS011;10781;50.928;4.440;2024-02-04T10:10:08;9.00;;;3.58;;
21245;SDS011;10781;50.928;4.440;2024-02-04T10:12:36;7.88;;;3.20;;
21245;SDS011;10781;50.928;4.440;2024-02-04T10:15:03;6.38;;;3.00;;
21245;SDS011;10781;50.928;4.440;2024-02-04T10:17:30;6.88;;;3.00;;
21245;SDS011;10781;50.928;4.440;2024-02-04T10:19:56;6.85;;;2.95;;
21245;SDS011;10781;50.928;4.440;2024-02-04T10:22:22;6.85;;;3.28;;
21245;SDS011;10781;50.928;4.440;2024-02-04T10:24:51;6.68;;;2.75;;
21245;SDS011;10781;50.928;4.440;2024-02-04T10:27:17;4.70;;;2.78;;
21245;SDS011;10781;50.928;4.440;2024-02-04T10:29:43;7.88;;;2.97;;
21245;SDS011;10781;50.928;4.440;2024-02-04T10:32:09;4.60;;;3.13;;
21245;SDS011;10781;50.928;4.440;2024-02-04T10:34:38;5.05;;;2.83;;
21245;SDS011;10781;50.928;4.440;2024-02-04T10:37:04;6.63;;;3.13;;
21245;SDS011;10781;50.928;4.440;2024-02-04T10:39:30;7.65;;;3.60;;
21245;SDS011;10781;50.928;4.440;2024-02-04T10:41:56;8.80;;;3.40;;
21245;SDS011;10781;50.928;4.440;2024-02-04T10:44:28;6.13;;;3.20;;
21245;SDS011;10781;50.928;4.440;2024-02-04T10:47:05;7.40;;;3.35;;
21245;SDS011;10781;50.928;4.440;2024-02-04T10:49:35;6.95;;;3.30;;
21245;SDS011;10781;50.928;4.440;2024-02-04T10:52:06;7.05;;;2.90;;
21245;SDS011;10781;50.928;4.440;2024-02-04T10:54:35;4.80;;;3.22;;
21245;SDS011;10781;50.928;4.440;2024-02-04T10:57:05;4.85;;;3.20;;
21245;SDS011;10781;50.928;4.440;2024-02-04T10:59:35;6.60;;;3.17;;
21245;SDS011;10781;50.928;4.440;2024-02-04T11:02:01;4.53;;;2.67;;
21245;SDS011;10781;50.928;4.440;2024-02-04T11:04:27;5.15;;;2.60;;
21245;SDS011;10781;50.928;4.440;2024-02-04T11:06:54;5.93;;;2.70;;
21245;SDS011;10781;50.928;4.440;2024-02-04T11:09:21;5.75;;;2.90;;
21245;SDS011;10781;50.928;4.440;2024-02-04T11:11:47;4.97;;;2.45;;
21245;SDS011;10781;50.928;4.440;2024-02-04T11:14:15;8.43;;;3.00;;
21245;SDS011;10781;50.928;4.440;2024-02-04T11:19:28;3.47;;;2.63;;
21245;SDS011;10781;50.928;4.440;2024-02-04T11:22:14;6.72;;;3.10;;
21245;SDS011;10781;50.928;4.440;2024-02-04T11:27:58;5.05;;;2.28;;
21245;SDS011;10781;50.928;4.440;2024-02-04T11:30:24;5.05;;;2.33;;
21245;SDS011;10781;50.928;4.440;2024-02-04T11:32:50;5.10;;;2.50;;
21245;SDS011;10781;50.928;4.440;2024-02-04T11:35:16;5.35;;;2.20;;
21245;SDS011;10781;50.928;4.440;2024-02-04T11:37:42;5.78;;;2.53;;
21245;SDS011;10781;50.928;4.440;2024-02-04T11:40:14;5.75;;;2.10;;
21245;SDS011;10781;50.928;4.440;2024-02-04T11:42:44;7.50;;;2.17;;
21245;SDS011;10781;50.928;4.440;2024-02-04T11:45:13;6.00;;;2.08;;
21245;SDS011;10781;50.928;4.440;2024-02-04T11:47:39;5.50;;;2.17;;
21245;SDS011;10781;50.928;4.440;2024-02-04T11:50:05;4.78;;;1.92;;
21245;SDS011;10781;50.928;4.440;2024-02-04T11:52:32;3.92;;;2.00;;
21245;SDS011;10781;50.928;4.440;2024-02-04T11:54:59;4.53;;;1.92;;
21245;SDS011;10781;50.928;4.440;2024-02-04T11:57:24;6.55;;;2.05;;
21245;SDS011;10781;50.928;4.440;2024-02-04T11:59:51;6.18;;;1.73;;
21245;SDS011;10781;50.928;4.440;2024-02-04T12:02:20;2.78;;;1.77;;
21245;SDS011;10781;50.928;4.440;2024-02-04T12:04:46;5.20;;;2.08;;
21245;SDS011;10781;50.928;4.440;2024-02-04T12:07:15;4.00;;;1.63;;
21245;SDS011;10781;50.928;4.440;2024-02-04T12:09:42;5.15;;;1.98;;
21245;SDS011;10781;50.928;4.440;2024-02-04T12:12:09;3.67;;;1.85;;
21245;SDS011;10781;50.928;4.440;2024-02-04T12:14:34;4.25;;;1.77;;
21245;SDS011;10781;50.928;4.440;2024-02-04T12:17:10;3.50;;;1.90;;
21245;SDS011;10781;50.928;4.440;2024-02-04T12:19:36;6.13;;;2.25;;
21245;SDS011;10781;50.928;4.440;2024-02-04T12:22:03;5.03;;;1.80;;
21245;SDS011;10781;50.928;4.440;2024-02-04T12:24:34;5.32;;;1.85;;
21245;SDS011;10781;50.928;4.440;2024-02-04T12:27:04;4.05;;;2.10;;
21245;SDS011;10781;50.928;4.440;2024-02-04T12:29:30;5.63;;;2.30;;
21245;SDS011;10781;50.928;4.440;2024-02-04T12:31:57;3.70;;;2.10;;
21245;SDS011;10781;50.928;4.440;2024-02-04T12:34:29;6.07;;;2.88;;
21245;SDS011;10781;50.928;4.440;2024-02-04T12:36:59;3.90;;;2.15;;
21245;SDS011;10781;50.928;4.440;2024-02-04T12:39:25;5.00;;;2.20;;
21245;SDS011;10781;50.928;4.440;2024-02-04T12:41:51;4.70;;;2.40;;
21245;SDS011;10781;50.928;4.440;2024-02-04T12:44:17;4.70;;;2.28;;
21245;SDS011;10781;50.928;4.440;2024-02-04T12:46:44;6.25;;;2.17;;
21245;SDS011;10781;50.928;4.440;2024-02-04T12:49:09;4.25;;;2.67;;
21245;SDS011;10781;50.928;4.440;2024-02-04T12:51:42;4.25;;;2.13;;
21245;SDS011;10781;50.928;4.440;2024-02-04T12:54:09;3.63;;;1.80;;
21245;SDS011;10781;50.928;4.440;2024-02-04T12:56:43;4.22;;;1.95;;
21245;SDS011;10781;50.928;4.440;2024-02-04T12:59:12;2.85;;;1.80;;
21245;SDS011;10781;50.928;4.440;2024-02-04T13:01:57;2.63;;;1.73;;
21245;SDS011;10781;50.928;4.440;2024-02-04T13:04:25;3.63;;;1.30;;
21245;SDS011;10781;50.928;4.440;2024-02-04T13:06:51;4.88;;;1.67;;
21245;SDS011;10781;50.928;4.440;2024-02-04T13:09:17;4.35;;;1.75;;
21245;SDS011;10781;50.928;4.440;2024-02-04T13:11:43;4.20;;;1.75;;
21245;SDS011;10781;50.928;4.440;2024-02-04T13:14:09;3.90;;;1.55;;
21245;SDS011;10781;50.928;4.440;2024-02-04T13:16:36;3.72;;;1.50;;
21245;SDS011;10781;50.928;4.440;2024-02-04T13:19:02;3.15;;;1.73;;
21245;SDS011;10781;50.928;4.440;2024-02-04T13:21:28;3.25;;;1.50;;
21245;SDS011;10781;50.928;4.440;2024-02-04T13:23:54;1.90;;;1.50;;
21245;SDS011;10781;50.928;4.440;2024-02-04T13:26:20;5.38;;;1.63;;
21245;SDS011;10781;50.928;4.440;2024-02-04T13:28:46;3.92;;;1.75;;
21245;SDS011;10781;50.928;4.440;2024-02-04T13:31:11;2.83;;;1.50;;
21245;SDS011;10781;50.928;4.440;2024-02-04T13:33:40;3.28;;;1.70;;
21245;SDS011;10781;50.928;4.440;2024-02-04T13:36:09;3.78;;;1.50;;
21245;SDS011;10781;50.928;4.440;2024-02-04T13:38:36;3.72;;;1.60;;
21245;SDS011;10781;50.928;4.440;2024-02-04T13:41:02;2.38;;;1.48;;
21245;SDS011;10781;50.928;4.440;2024-02-04T13:43:33;3.35;;;1.63;;
21245;SDS011;10781;50.928;4.440;2024-02-04T13:46:01;1.83;;;1.40;;
21245;SDS011;10781;50.928;4.440;2024-02-04T13:48:27;2.50;;;1.40;;
21245;SDS011;10781;50.928;4.440;2024-02-04T13:50:53;2.10;;;1.30;;
21245;SDS011;10781;50.928;4.440;2024-02-04T13:53:21;2.10;;;1.40;;
21245;SDS011;10781;50.928;4.440;2024-02-04T13:55:48;2.40;;;1.55;;
21245;SDS011;10781;50.928;4.440;2024-02-04T13:58:14;2.38;;;1.40;;
21245;SDS011;10781;50.928;4.440;2024-02-04T14:00:40;3.13;;;1.67;;
21245;SDS011;10781;50.928;4.440;2024-02-04T14:03:05;2.95;;;1.45;;
21245;SDS011;10781;50.928;4.440;2024-02-04T14:05:32;2.53;;;1.27;;
21245;SDS011;10781;50.928;4.440;2024-02-04T14:07:58;3.75;;;2.03;;
21245;SDS011;10781;50.928;4.440;2024-02-04T14:10:23;3.13;;;1.77;;
21245;SDS011;10781;50.928;4.440;2024-02-04T14:12:49;3.28;;;1.60;;
21245;SDS011;10781;50.928;4.440;2024-02-04T14:15:15;3.08;;;1.80;;
21245;SDS011;10781;50.928;4.440;2024-02-04T14:17:41;5.40;;;2.10;;
21245;SDS011;10781;50.928;4.440;2024-02-04T14:20:07;4.50;;;2.15;;
21245;SDS011;10781;50.928;4.440;2024-02-04T14:22:34;4.63;;;2.00;;
21245;SDS011;10781;50.928;4.440;2024-02-04T14:25:00;5.05;;;2.22;;
21245;SDS011;10781;50.928;4.440;2024-02-04T14:27:26;5.75;;;2.10;;
21245;SDS011;10781;50.928;4.440;2024-02-04T14:29:51;3.92;;;2.00;;
21245;SDS011;10781;50.928;4.440;2024-02-04T14:32:17;5.57;;;2.03;;
21245;SDS011;10781;50.928;4.440;2024-02-04T14:34:43;4.80;;;2.40;;
21245;SDS011;10781;50.928;4.440;2024-02-04T14:37:09;3.90;;;2.10;;
21245;SDS011;10781;50.928;4.440;2024-02-04T14:39:36;3.83;;;2.10;;
21245;SDS011;10781;50.928;4.440;2024-02-04T14:42:02;4.80;;;2.38;;
21245;SDS011;10781;50.928;4.440;2024-02-04T14:44:27;4.30;;;2.08;;